createdAt,value
2017-11-19T00:00:25.817Z,60.00
2017-11-19T00:02:53.268Z,60.00
2017-11-19T00:05:21.483Z,60.00
2017-11-19T00:07:48.936Z,60.00
2017-11-19T00:10:16.392Z,60.00
2017-11-19T00:12:43.855Z,59.90
2017-11-19T00:15:11.307Z,60.00
2017-11-19T00:17:38.775Z,60.00
2017-11-19T00:20:07.002Z,60.00
2017-11-19T00:22:34.463Z,59.90
2017-11-19T00:25:02.695Z,59.80
2017-11-19T00:27:30.919Z,60.00
2017-11-19T00:29:58.366Z,60.00
2017-11-19T00:32:25.832Z,60.10
2017-11-19T00:34:53.285Z,60.00
2017-11-19T00:37:21.519Z,60.00
2017-11-19T00:39:48.976Z,60.00
2017-11-19T00:42:16.436Z,60.10
2017-11-19T00:44:43.879Z,60.10
2017-11-19T00:47:11.346Z,59.90
2017-11-19T00:49:39.562Z,60.00
2017-11-19T00:52:07.016Z,60.00
2017-11-19T00:54:34.471Z,60.00
2017-11-19T00:57:01.943Z,60.00
2017-11-19T00:59:29.404Z,60.10
2017-11-19T01:01:56.875Z,60.10
2017-11-19T01:04:24.359Z,60.10
2017-11-19T01:06:51.806Z,60.10
2017-11-19T01:09:19.261Z,60.10
2017-11-19T01:11:46.714Z,60.20
2017-11-19T01:14:14.168Z,60.20
2017-11-19T01:16:41.632Z,60.30
2017-11-19T01:19:09.087Z,60.30
2017-11-19T01:21:36.548Z,60.30
2017-11-19T01:24:04.004Z,60.50
2017-11-19T01:26:31.460Z,60.60
2017-11-19T01:28:58.910Z,60.60
2017-11-19T01:31:27.871Z,60.70
2017-11-19T01:33:55.339Z,60.60
2017-11-19T01:36:22.785Z,60.60
2017-11-19T01:38:50.252Z,60.60
2017-11-19T01:41:17.703Z,60.60
2017-11-19T01:43:45.159Z,60.60
2017-11-19T01:46:12.611Z,60.60
2017-11-19T01:48:40.069Z,60.70
2017-11-19T01:51:07.518Z,60.70
2017-11-19T01:53:34.986Z,60.60
2017-11-19T01:56:02.476Z,60.70
2017-11-19T01:58:29.936Z,60.70
2017-11-19T02:00:58.169Z,60.80
2017-11-19T02:03:26.399Z,60.90
2017-11-19T02:05:54.642Z,60.90
2017-11-19T02:08:22.096Z,60.80
2017-11-19T02:10:49.547Z,60.70
2017-11-19T02:13:17.008Z,60.60
2017-11-19T02:15:44.463Z,60.70
2017-11-19T02:18:11.925Z,60.60
2017-11-19T02:20:40.159Z,60.80
2017-11-19T02:23:07.616Z,60.80
2017-11-19T02:25:35.092Z,60.70
2017-11-19T02:28:03.315Z,61.10
2017-11-19T02:30:31.538Z,61.00
2017-11-19T02:32:58.985Z,61.00
2017-11-19T02:35:26.451Z,61.00
2017-11-19T02:37:53.907Z,60.90
2017-11-19T02:40:21.367Z,61.10
2017-11-19T02:42:48.824Z,61.20
2017-11-19T02:45:16.278Z,61.00
2017-11-19T02:47:43.722Z,61.10
2017-11-19T02:50:11.191Z,61.20
2017-11-19T02:52:38.656Z,60.90
2017-11-19T02:55:06.107Z,61.00
2017-11-19T02:57:33.555Z,61.10
2017-11-19T03:00:01.791Z,60.90
2017-11-19T03:02:29.248Z,60.90
2017-11-19T03:04:56.716Z,61.70
2017-11-19T03:07:24.940Z,61.00
2017-11-19T03:09:52.399Z,61.00
2017-11-19T03:12:19.872Z,61.30
2017-11-19T03:14:47.303Z,61.30
2017-11-19T03:17:14.746Z,61.50
2017-11-19T03:19:42.204Z,61.40
2017-11-19T03:22:09.672Z,61.40
2017-11-19T03:24:37.899Z,61.40
2017-11-19T03:27:05.355Z,61.50
2017-11-19T03:29:32.830Z,61.50
2017-11-19T03:32:00.291Z,61.40
2017-11-19T03:34:28.498Z,61.40
2017-11-19T03:36:55.958Z,61.40
2017-11-19T03:39:23.411Z,61.30
2017-11-19T03:41:50.866Z,61.20
2017-11-19T03:44:18.325Z,61.20
2017-11-19T03:46:45.784Z,61.30
2017-11-19T03:49:13.286Z,61.10
2017-11-19T03:51:40.750Z,61.10
2017-11-19T03:54:08.206Z,61.20
2017-11-19T03:56:35.664Z,61.20
2017-11-19T03:59:03.115Z,61.20
2017-11-19T04:01:30.583Z,61.40
2017-11-19T04:03:58.799Z,61.30
2017-11-19T04:06:27.020Z,61.20
2017-11-19T04:08:55.251Z,61.20
2017-11-19T04:11:23.476Z,61.10
2017-11-19T04:13:51.686Z,61.20
2017-11-19T04:16:19.159Z,61.20
2017-11-19T04:18:46.614Z,61.20
2017-11-19T04:21:14.078Z,61.10
2017-11-19T04:23:41.543Z,61.00
2017-11-19T04:26:09.007Z,61.00
2017-11-19T04:28:36.456Z,61.10
2017-11-19T04:31:03.903Z,61.10
2017-11-19T04:33:31.360Z,61.10
2017-11-19T04:35:58.818Z,61.10
2017-11-19T04:38:26.272Z,61.00
2017-11-19T04:40:53.731Z,61.10
2017-11-19T04:43:21.188Z,61.20
2017-11-19T04:45:48.638Z,61.10
2017-11-19T04:48:16.107Z,61.20
2017-11-19T04:50:43.563Z,61.30
2017-11-19T04:53:11.082Z,61.40
2017-11-19T04:55:38.551Z,61.40
2017-11-19T04:58:06.028Z,61.70
2017-11-19T05:00:33.492Z,61.50
2017-11-19T05:03:00.951Z,61.40
2017-11-19T05:05:29.183Z,61.60
2017-11-19T05:07:56.684Z,61.50
2017-11-19T05:10:24.859Z,61.40
2017-11-19T05:12:52.315Z,61.40
2017-11-19T05:15:19.771Z,62.10
2017-11-19T05:17:47.241Z,61.50
2017-11-19T05:20:14.697Z,61.60
2017-11-19T05:22:42.926Z,61.80
2017-11-19T05:25:11.143Z,61.70
2017-11-19T05:27:38.600Z,61.80
2017-11-19T05:30:06.051Z,61.80
2017-11-19T05:32:33.508Z,61.90
2017-11-19T05:35:01.753Z,61.70
2017-11-19T05:37:29.239Z,61.70
2017-11-19T05:39:56.691Z,61.80
2017-11-19T05:42:24.135Z,61.70
2017-11-19T05:44:51.606Z,61.60
2017-11-19T05:47:19.823Z,61.70
2017-11-19T05:49:47.271Z,61.60
2017-11-19T05:52:14.722Z,61.60
2017-11-19T05:54:42.180Z,61.50
2017-11-19T05:57:09.620Z,61.50
2017-11-19T05:59:37.071Z,61.60
2017-11-19T06:02:04.526Z,61.60
2017-11-19T06:04:31.981Z,61.70
2017-11-19T06:06:59.424Z,61.70
2017-11-19T06:09:26.895Z,61.60
2017-11-19T06:11:54.357Z,61.60
2017-11-19T06:14:21.819Z,61.60
2017-11-19T06:16:49.262Z,61.90
2017-11-19T06:19:16.719Z,61.80
2017-11-19T06:21:44.944Z,62.10
2017-11-19T06:24:13.173Z,62.00
2017-11-19T06:26:40.615Z,62.70
2017-11-19T06:29:08.088Z,62.10
2017-11-19T06:31:35.549Z,62.10
2017-11-19T06:34:02.998Z,62.00
2017-11-19T06:36:30.443Z,62.00
2017-11-19T06:38:57.907Z,61.90
2017-11-19T06:41:25.362Z,62.20
2017-11-19T06:43:53.595Z,62.30
2017-11-19T06:46:21.051Z,62.30
2017-11-19T06:48:48.514Z,62.30
2017-11-19T06:51:17.481Z,62.40
2017-11-19T06:53:45.691Z,62.40
2017-11-19T06:56:13.163Z,62.30
2017-11-19T06:58:41.374Z,62.30
2017-11-19T07:01:08.847Z,62.30
2017-11-19T07:03:36.299Z,62.10
2017-11-19T07:06:03.779Z,62.20
2017-11-19T07:08:31.224Z,62.30
2017-11-19T07:10:58.697Z,62.10
2017-11-19T07:13:26.151Z,62.00
2017-11-19T07:15:53.627Z,61.90
2017-11-19T07:18:21.075Z,62.00
2017-11-19T07:20:49.306Z,61.80
2017-11-19T07:23:17.519Z,61.80
2017-11-19T07:25:44.979Z,61.80
2017-11-19T07:28:12.436Z,61.80
2017-11-19T07:30:39.891Z,61.80
2017-11-19T07:33:07.359Z,62.00
2017-11-19T07:35:34.818Z,62.10
2017-11-19T07:38:02.266Z,61.90
2017-11-19T07:40:29.730Z,62.10
2017-11-19T07:42:57.957Z,62.10
2017-11-19T07:45:26.182Z,62.30
2017-11-19T07:47:53.627Z,62.30
2017-11-19T07:50:21.847Z,62.30
2017-11-19T07:52:49.296Z,62.20
2017-11-19T07:55:16.765Z,62.20
2017-11-19T07:57:44.232Z,62.00
2017-11-19T08:00:11.691Z,62.10
2017-11-19T08:02:39.157Z,62.00
2017-11-19T08:05:06.610Z,62.10
2017-11-19T08:07:34.067Z,61.80
2017-11-19T08:10:01.541Z,61.80
2017-11-19T08:12:29.018Z,62.10
2017-11-19T08:14:56.469Z,62.20
2017-11-19T08:17:23.931Z,62.50
2017-11-19T08:19:52.159Z,62.40
2017-11-19T08:22:19.616Z,62.50
2017-11-19T08:24:47.071Z,62.40
2017-11-19T08:27:15.299Z,62.30
2017-11-19T08:29:42.775Z,62.30
2017-11-19T08:32:11.002Z,62.10
2017-11-19T08:34:38.448Z,62.10
2017-11-19T08:37:05.934Z,62.10
2017-11-19T08:39:33.383Z,62.30
2017-11-19T08:42:00.850Z,62.20
2017-11-19T08:44:28.308Z,62.20
2017-11-19T08:46:55.780Z,62.20
2017-11-19T08:49:23.237Z,61.80
2017-11-19T08:51:51.461Z,61.40
2017-11-19T08:54:18.904Z,61.40
2017-11-19T08:56:46.393Z,61.60
2017-11-19T08:59:13.860Z,61.80
2017-11-19T09:01:41.312Z,62.30
2017-11-19T09:04:08.801Z,62.50
2017-11-19T09:06:36.269Z,62.60
2017-11-19T09:09:03.744Z,62.60
2017-11-19T09:11:31.961Z,62.80
2017-11-19T09:13:59.448Z,62.80
2017-11-19T09:16:26.896Z,62.80
2017-11-19T09:18:55.139Z,62.60
2017-11-19T09:21:22.595Z,62.60
2017-11-19T09:23:50.060Z,62.60
2017-11-19T09:26:17.519Z,61.90
2017-11-19T09:28:45.004Z,61.10
2017-11-19T09:31:12.471Z,60.60
2017-11-19T09:33:39.928Z,60.20
2017-11-19T09:36:07.374Z,60.10
2017-11-19T09:38:35.606Z,60.10
2017-11-19T09:41:03.054Z,60.10
2017-11-19T09:43:30.508Z,59.80
2017-11-19T09:45:58.739Z,59.90
2017-11-19T09:48:26.959Z,59.70
2017-11-19T09:50:54.407Z,59.70
2017-11-19T09:53:21.858Z,59.60
2017-11-19T09:55:50.078Z,59.00
2017-11-19T09:58:18.322Z,59.20
2017-11-19T10:00:45.768Z,59.20
2017-11-19T10:03:14.003Z,59.40
2017-11-19T10:05:41.479Z,59.30
2017-11-19T10:08:09.712Z,60.30
2017-11-19T10:10:37.172Z,60.20
2017-11-19T10:13:05.404Z,59.30
2017-11-19T10:15:32.880Z,59.20
2017-11-19T10:18:01.105Z,60.20
2017-11-19T10:20:28.563Z,60.00
2017-11-19T10:22:56.027Z,60.50
2017-11-19T10:25:23.476Z,60.70
2017-11-19T10:27:50.933Z,60.50
2017-11-19T10:30:19.185Z,59.90
2017-11-19T10:32:46.623Z,59.90
2017-11-19T10:35:14.085Z,59.00
2017-11-19T10:37:41.530Z,58.20
2017-11-19T10:40:08.989Z,58.20
2017-11-19T10:42:37.053Z,57.20
2017-11-19T10:45:05.288Z,55.20
2017-11-19T10:47:32.758Z,55.20
2017-11-19T10:50:00.263Z,56.00
2017-11-19T10:52:27.726Z,56.80
2017-11-19T10:54:55.453Z,57.60
2017-11-19T10:57:22.933Z,58.40
2017-11-19T10:59:50.383Z,58.70
2017-11-19T11:02:18.615Z,57.70
2017-11-19T11:04:46.084Z,57.60
2017-11-19T11:07:14.291Z,58.30
2017-11-19T11:09:42.535Z,58.60
2017-11-19T11:12:09.982Z,58.60
2017-11-19T11:14:37.480Z,58.90
2017-11-19T11:17:05.701Z,55.60
2017-11-19T11:19:33.161Z,55.50
2017-11-19T11:22:00.623Z,54.60
2017-11-19T11:24:28.070Z,56.20
2017-11-19T11:26:55.535Z,57.50
2017-11-19T11:29:22.997Z,58.40
2017-11-19T11:31:50.476Z,59.00
2017-11-19T11:34:17.924Z,59.60
2017-11-19T11:36:45.388Z,60.00
2017-11-19T11:39:12.843Z,60.20
2017-11-19T11:41:40.320Z,60.50
2017-11-19T11:44:08.529Z,60.80
2017-11-19T11:46:35.988Z,60.70
2017-11-19T11:49:03.436Z,61.00
2017-11-19T11:51:30.899Z,61.00
2017-11-19T11:53:59.142Z,61.40
2017-11-19T11:56:27.388Z,60.60
2017-11-19T11:58:54.851Z,60.60
2017-11-19T12:01:22.311Z,57.10
2017-11-19T12:03:49.774Z,52.20
2017-11-19T12:06:17.227Z,48.30
2017-11-19T12:08:44.696Z,45.00
2017-11-19T12:11:12.187Z,43.20
2017-11-19T12:13:41.741Z,41.90
2017-11-19T12:16:09.216Z,41.10
2017-11-19T12:18:36.705Z,44.00
2017-11-19T12:21:04.418Z,44.30
2017-11-19T12:23:32.101Z,43.00
2017-11-19T12:26:00.396Z,40.80
2017-11-19T12:28:28.656Z,40.70
2017-11-19T12:30:56.140Z,40.70
2017-11-19T12:33:23.699Z,41.30
2017-11-19T12:35:51.255Z,42.30
2017-11-19T12:38:18.865Z,43.50
2017-11-19T12:40:55.372Z,45.40
2017-11-19T12:43:23.640Z,45.90
2017-11-19T12:45:52.083Z,43.00
2017-11-19T12:48:19.556Z,43.00
2017-11-19T12:50:47.046Z,41.70
2017-11-19T12:53:15.279Z,42.80
2017-11-19T12:55:43.507Z,43.40
2017-11-19T12:58:10.960Z,43.40
2017-11-19T13:00:39.186Z,42.60
2017-11-19T13:03:06.653Z,42.60
2017-11-19T13:05:34.252Z,44.60
2017-11-19T13:08:02.496Z,47.60
2017-11-19T13:10:29.966Z,47.60
2017-11-19T13:12:57.433Z,48.30
2017-11-19T13:15:25.645Z,50.00
2017-11-19T13:17:53.159Z,50.00
2017-11-19T13:20:20.619Z,51.40
2017-11-19T13:22:48.861Z,53.50
2017-11-19T13:25:17.083Z,54.00
2017-11-19T13:27:45.324Z,54.50
2017-11-19T13:30:13.531Z,55.20
2017-11-19T13:32:41.799Z,55.80
2017-11-19T13:35:10.032Z,56.30
2017-11-19T13:37:37.503Z,56.30
2017-11-19T13:40:04.994Z,56.60
2017-11-19T13:42:32.502Z,57.00
2017-11-19T13:44:59.972Z,57.20
2017-11-19T13:47:27.459Z,57.30
2017-11-19T13:49:54.964Z,57.40
2017-11-19T13:52:22.409Z,57.60
2017-11-19T13:54:49.894Z,57.60
2017-11-19T13:57:17.356Z,57.80
2017-11-19T13:59:44.840Z,57.80
2017-11-19T14:02:13.047Z,58.50
2017-11-19T14:04:41.300Z,58.60
2017-11-19T14:07:09.535Z,58.80
2017-11-19T14:09:37.772Z,59.10
2017-11-19T14:12:06.006Z,59.10
2017-11-19T14:14:33.464Z,59.10
2017-11-19T14:17:00.924Z,59.30
2017-11-19T14:19:28.383Z,59.50
2017-11-19T14:21:55.839Z,59.30
2017-11-19T14:24:23.355Z,59.60
2017-11-19T14:26:51.571Z,59.60
2017-11-19T14:29:19.058Z,59.60
2017-11-19T14:31:47.279Z,59.30
2017-11-19T14:34:14.751Z,59.30
2017-11-19T14:36:43.020Z,59.30
2017-11-19T14:39:10.512Z,59.30
2017-11-19T14:41:38.030Z,59.30
2017-11-19T14:44:05.500Z,59.30
2017-11-19T14:46:32.943Z,59.40
2017-11-19T14:49:01.193Z,59.60
2017-11-19T14:51:28.704Z,59.60
2017-11-19T14:53:56.176Z,59.80
2017-11-19T14:56:24.424Z,60.30
2017-11-19T14:58:52.644Z,60.00
2017-11-19T15:01:20.114Z,60.00
2017-11-19T15:03:48.345Z,60.20
2017-11-19T15:06:15.806Z,60.10
2017-11-19T15:08:43.264Z,60.20
2017-11-19T15:11:10.738Z,60.30
2017-11-19T15:13:38.188Z,60.40
2017-11-19T15:16:05.652Z,60.50
2017-11-19T15:18:33.877Z,60.40
2017-11-19T15:21:02.099Z,60.40
2017-11-19T15:23:29.568Z,60.40
2017-11-19T15:25:57.038Z,60.40
2017-11-19T15:28:25.251Z,60.50
2017-11-19T15:30:52.724Z,60.40
2017-11-19T15:33:20.189Z,60.70
2017-11-19T15:35:47.682Z,60.70
2017-11-19T15:38:15.903Z,60.90
2017-11-19T15:40:43.373Z,60.90
2017-11-19T15:43:10.815Z,61.10
2017-11-19T15:45:38.279Z,61.10
2017-11-19T15:48:05.755Z,61.00
2017-11-19T15:50:33.976Z,61.20
2017-11-19T15:53:01.420Z,61.20
2017-11-19T15:55:28.912Z,61.10
2017-11-19T15:57:56.366Z,61.10
2017-11-19T16:00:23.827Z,61.20
2017-11-19T16:02:52.050Z,61.30
2017-11-19T16:05:20.281Z,61.40
2017-11-19T16:07:47.731Z,61.40
2017-11-19T16:10:15.991Z,61.20
2017-11-19T16:12:43.459Z,61.20
2017-11-19T16:15:10.916Z,61.20
2017-11-19T16:17:38.379Z,61.20
2017-11-19T16:20:05.839Z,61.20
2017-11-19T16:22:34.071Z,61.40
2017-11-19T16:25:01.533Z,61.30
2017-11-19T16:27:29.750Z,61.40
2017-11-19T16:29:57.227Z,61.40
2017-11-19T16:32:24.699Z,61.40
2017-11-19T16:34:52.143Z,61.30
2017-11-19T16:37:19.595Z,61.30
2017-11-19T16:39:47.812Z,61.30
2017-11-19T16:42:15.278Z,61.40
2017-11-19T16:44:42.731Z,61.20
2017-11-19T16:47:10.965Z,61.30
2017-11-19T16:49:38.410Z,61.30
2017-11-19T16:52:05.876Z,61.30
2017-11-19T16:54:34.100Z,61.30
2017-11-19T16:57:02.327Z,61.40
2017-11-19T16:59:29.784Z,61.40
2017-11-19T17:01:57.249Z,61.40
2017-11-19T17:04:24.709Z,61.50
2017-11-19T17:06:52.179Z,61.50
2017-11-19T17:09:19.663Z,61.60
2017-11-19T17:11:47.156Z,61.50
2017-11-19T17:14:14.614Z,61.50
2017-11-19T17:16:42.842Z,61.60
2017-11-19T17:19:10.320Z,61.60
2017-11-19T17:21:37.806Z,61.70
2017-11-19T17:24:06.043Z,62.40
2017-11-19T17:26:34.309Z,61.70
2017-11-19T17:29:02.572Z,61.70
2017-11-19T17:31:30.813Z,61.70
2017-11-19T17:33:58.314Z,61.60
2017-11-19T17:36:31.359Z,61.60
2017-11-19T17:38:58.820Z,61.70
2017-11-19T17:41:26.276Z,61.70
2017-11-19T17:43:53.752Z,61.70
2017-11-19T17:46:21.204Z,61.80
2017-11-19T17:48:48.667Z,61.80
2017-11-19T17:51:16.181Z,61.80
2017-11-19T17:53:43.673Z,61.80
2017-11-19T17:56:11.127Z,61.80
2017-11-19T17:58:38.595Z,61.70
2017-11-19T18:01:06.119Z,62.40
2017-11-19T18:03:33.581Z,61.80
2017-11-19T18:06:01.038Z,61.80
2017-11-19T18:08:28.511Z,62.00
2017-11-19T18:10:56.000Z,61.90
2017-11-19T18:13:24.242Z,61.90
2017-11-19T18:15:51.704Z,61.90
2017-11-19T18:18:19.175Z,62.00
2017-11-19T18:20:46.620Z,61.80
2017-11-19T18:23:14.077Z,61.80
2017-11-19T18:25:41.532Z,61.70
2017-11-19T18:30:36.468Z,61.70
2017-11-19T18:33:03.925Z,61.80
2017-11-19T18:35:31.399Z,61.80
2017-11-19T18:37:59.611Z,61.70
2017-11-19T18:40:27.087Z,61.70
2017-11-19T18:42:55.307Z,61.70
2017-11-19T18:45:23.551Z,61.60
2017-11-19T18:47:51.010Z,61.60
2017-11-19T18:50:19.250Z,61.70
2017-11-19T18:52:46.711Z,61.60
2017-11-19T18:55:14.212Z,61.60
2017-11-19T18:57:41.688Z,61.70
2017-11-19T19:00:09.951Z,61.70
2017-11-19T19:02:37.419Z,61.70
2017-11-19T19:05:05.659Z,61.70
2017-11-19T19:07:33.275Z,61.60
2017-11-19T19:10:00.727Z,61.70
2017-11-19T19:12:28.171Z,61.70
2017-11-19T19:14:56.419Z,61.70
2017-11-19T19:17:24.643Z,61.70
2017-11-19T19:19:52.896Z,61.80
2017-11-19T19:22:20.382Z,61.70
2017-11-19T19:24:48.637Z,61.80
2017-11-19T19:27:16.876Z,61.80
2017-11-19T19:29:44.362Z,61.80
2017-11-19T19:32:12.620Z,61.80
2017-11-19T19:34:40.911Z,61.90
2017-11-19T19:37:08.456Z,61.90
2017-11-19T19:39:35.927Z,61.90
2017-11-19T19:42:04.158Z,61.90
2017-11-19T19:44:31.663Z,61.80
2017-11-19T19:46:59.910Z,61.80
2017-11-19T19:49:27.392Z,61.80
2017-11-19T19:51:55.639Z,61.90
2017-11-19T19:54:23.099Z,61.90
2017-11-19T19:56:50.575Z,61.90
2017-11-19T19:59:18.046Z,61.90
2017-11-19T20:01:45.527Z,61.90
2017-11-19T20:04:12.971Z,62.00
2017-11-19T20:06:40.435Z,62.00
2017-11-19T20:09:08.654Z,62.10
2017-11-19T20:11:36.135Z,62.10
2017-11-19T20:14:03.591Z,62.10
2017-11-19T20:16:31.058Z,62.20
2017-11-19T20:18:58.516Z,62.20
2017-11-19T20:21:25.992Z,62.20
2017-11-19T20:23:53.494Z,62.30
2017-11-19T20:26:21.004Z,62.20
2017-11-19T20:28:49.235Z,62.30
2017-11-19T20:31:16.693Z,62.20
2017-11-19T20:33:44.165Z,62.20
2017-11-19T20:36:12.437Z,62.30
2017-11-19T20:38:41.403Z,62.10
2017-11-19T20:41:08.888Z,62.10
2017-11-19T20:43:36.545Z,62.10
2017-11-19T20:46:04.154Z,62.00
2017-11-19T20:48:34.265Z,62.10
2017-11-19T20:51:01.810Z,62.20
2017-11-19T20:53:29.273Z,62.20
2017-11-19T20:55:57.546Z,62.30
2017-11-19T20:58:25.008Z,62.10
2017-11-19T21:00:53.251Z,62.30
2017-11-19T21:03:20.742Z,62.30
2017-11-19T21:05:49.007Z,62.30
2017-11-19T21:08:16.525Z,62.20
2017-11-19T21:10:43.990Z,62.10
2017-11-19T21:13:11.456Z,62.30
2017-11-19T21:15:38.932Z,62.20
2017-11-19T21:18:06.407Z,62.20
2017-11-19T21:20:34.647Z,62.10
2017-11-19T21:23:02.124Z,62.00
2017-11-19T21:25:29.583Z,62.10
2017-11-19T21:27:57.053Z,61.90
2017-11-19T21:30:25.305Z,62.10
2017-11-19T21:32:52.783Z,62.10
2017-11-19T21:35:20.242Z,62.10
2017-11-19T21:37:47.714Z,62.20
2017-11-19T21:40:15.935Z,62.20
2017-11-19T21:42:43.411Z,62.10
2017-11-19T21:45:10.858Z,62.10
2017-11-19T21:47:38.320Z,62.10
2017-11-19T21:50:05.783Z,62.00
2017-11-19T21:52:33.255Z,61.90
2017-11-19T21:55:00.722Z,61.80
2017-11-19T21:57:28.963Z,61.90
2017-11-19T21:59:56.424Z,61.90
2017-11-19T22:02:23.891Z,62.00
2017-11-19T22:04:51.360Z,62.10
2017-11-19T22:07:18.832Z,62.00
2017-11-19T22:09:47.050Z,61.90
2017-11-19T22:12:14.547Z,61.90
2017-11-19T22:14:41.999Z,61.90
2017-11-19T22:17:09.455Z,61.90
2017-11-19T22:19:36.915Z,62.00
2017-11-19T22:22:04.366Z,61.70
2017-11-19T22:24:31.827Z,61.90
2017-11-19T22:26:59.277Z,61.90
2017-11-19T22:29:26.721Z,61.80
2017-11-19T22:31:54.184Z,61.70
2017-11-19T22:34:21.656Z,61.80
2017-11-19T22:36:49.136Z,61.80
2017-11-19T22:39:16.583Z,61.80
2017-11-19T22:41:44.038Z,62.00
2017-11-19T22:44:11.503Z,62.00
2017-11-19T22:46:39.724Z,61.90
2017-11-19T22:49:07.599Z,61.90
2017-11-19T22:51:35.054Z,62.10
2017-11-19T22:54:02.508Z,62.00
2017-11-19T22:56:29.959Z,61.90
2017-11-19T22:58:57.415Z,62.00
2017-11-19T23:03:58.684Z,61.80
2017-11-19T23:06:26.140Z,61.90
2017-11-19T23:08:53.618Z,61.90
2017-11-19T23:11:21.063Z,61.80
2017-11-19T23:13:48.532Z,61.90
2017-11-19T23:16:15.990Z,61.90
2017-11-19T23:18:43.471Z,61.90
2017-11-19T23:21:10.929Z,61.90
2017-11-19T23:23:38.388Z,61.80
2017-11-19T23:26:05.851Z,61.80
2017-11-19T23:28:33.298Z,61.90
2017-11-19T23:31:00.760Z,61.80
2017-11-19T23:33:28.208Z,61.90
2017-11-19T23:35:55.673Z,61.90
2017-11-19T23:38:23.127Z,61.90
2017-11-19T23:40:50.591Z,62.00
2017-11-19T23:43:18.043Z,62.10
2017-11-19T23:45:45.505Z,62.00
2017-11-19T23:48:12.960Z,62.00
2017-11-19T23:50:40.415Z,62.10
2017-11-19T23:53:07.866Z,62.70
2017-11-19T23:55:35.331Z,62.10
2017-11-19T23:58:02.787Z,62.00
